Racecast

Allie Pete

Temperance Bedford (MI) · 12 · SECMI D1MONROE · Compare head to head

Athlete rating 122.2 2014 XC season
Best race 119.9 XC
Races 35
Seasons 5 2010 — 2014

RankedNation #17630·MI #2178·MI D1 #1296·SEC #117·Team #34 ?

Cross Country

2014 XC 112.3

Temperance Bedford (MI) · Grade 12

Date Meet Event Result Place Rating Difficulty PR/SR Flags
2014-10-25 Lake Erie Metro Park OFFICIAL 5000m 24:38.3 58th · 6th on team 111.3 +0.055 CSR
2014-10-04 Portage West MS 5000m 22:34 50th · 3rd on team 118.8 +0.038 ★PR ★CR SR CSR
2014-09-23 Huron Meadows Metropark OFFICIAL 5000m 22:57 21st · 3rd on team 119.9 +0.052 ★CR ★R SR CSR RSR
2014-09-20 Ella Sharp Park OFFICIAL 5000m 24:02 157th · 12th on team 111.9 +0.038 SR CSR RSR
2014-09-09 Hudson Mills Metropark - OFFICIAL 5000m 24:35.8 40th · 4th on team 109.6 +0.036 CSR RSR
2014-09-06 Hedges Boyer Park 5000m 24:18.5 174th · 5th on team 102.0 -0.036 SR CSR RSR

2013 XC 107.4

Temperance Bedford (MI) · Grade 11

Date Meet Event Result Place Rating Difficulty PR/SR Flags
2013-10-26 Lake Erie Metro Park OFFICIAL 5000m 23:10 14th · 10th on team 118.6 +0.055 ★CR R SR CSR RSR
2013-10-17 Hudson Mills Metropark - OFFICIAL 5000m 23:13 71st · 13th on team 114.7 +0.036 SR CSR RSR
2013-09-28 Pearson's Metro Park 5000m 24:33.5 71st · 12th on team 103.9 -0.022 CSR
2013-09-13 Forest Akers East Golf Course 5000m 23:55 166th · 20th on team 113.3 +0.061 SR CSR RSR
2013-09-10 Pioneer HS 5000m 28:37.7 110th · 20th on team 96.8 +0.067 ★CR CSR
2013-09-07 Hedges Boyer Park 5000m 25:12.4 266th · 13th on team 100.3 -0.036 SR CSR
2013-08-24 Island Lake Recreation Area OFFICIAL 5000m 26:53 61st · 30th on team 104.1 +0.069 SR CSR RSR

2012 XC 111.0

Temperance Bedford (MI) · Grade 10

Date Meet Event Result Place Rating Difficulty PR/SR Flags
2012-10-18 Hudson Mills Metropark - OFFICIAL 5000m 22:53.5 54th · 8th on team 118.2 +0.036 PR ★CR R SR CSR RSR
2012-09-29 Pearson's Metro Park 5000m 24:23.6 58th · 10th on team 103.8 -0.022 CSR
2012-09-27 Munson Park 5000m 23:26.2 47th · 7th on team 115.7 +0.054 ★CR CSR
2012-09-11 Indian Creek OFFICIAL 5000m 23:12.7 31st · 2nd on team 116.5 +0.039 ★CR SR CSR RSR
2012-09-08 Hedges Boyer Park 5000m 23:59 147th · 3rd on team 105.1 -0.036 ★CR SR CSR
2012-08-25 Island Lake Recreation Area OFFICIAL 5000m 26:07 34th · 20th on team 106.8 +0.069 SR CSR RSR

2011 XC 113.0

Temperance Bedford (MI) · Grade 9

Date Meet Event Result Place Rating Difficulty PR/SR Flags
2011-10-20 Hudson Mills Metropark - OFFICIAL 5000m 23:06 59th · 11th on team 117.6 +0.036 CR CSR
2011-10-08 Portage West MS 5000m 23:56.1 107th · 11th on team 114.2 +0.038 CR CSR
2011-10-01 Pearson's Metro Park 5000m 23:16 11th · 11th on team 109.1 -0.022 ★CR CSR
2011-09-27 Mill Pond Park 5000m 24:48.1 40th · 12th on team 113.4 +0.081 ★CR CSR
2011-09-24 Ella Sharp Park OFFICIAL 5000m 23:54 149th · 14th on team 112.9 +0.038 ★CR CSR
2011-09-16 Forest Akers East Golf Course 5000m 23:01 133rd · 8th on team 118.0 +0.061 PR ★CR R SR CSR RSR
2011-09-13 Willow Metropark OFFICIAL 5000m 23:58.2 29th · 7th on team 114.9 +0.048 PR ★CR R SR CSR RSR
2011-09-10 Hedges Boyer Park 5000m 24:03.7 127th · 7th on team 103.7 -0.036 PR CR SR CSR
2011-08-27 Island Lake Recreation Area OFFICIAL 5000m 24:27 61st · 6th on team 113.6 +0.069 PR ★CR R SR CSR RSR

2010 XC 89.1

Temperance Bedford (MI) · Grade 8

Date Meet Event Result Place Rating Difficulty PR/SR Flags
2010-10-23 Willow Metropark OFFICIAL 2414m 14:10.2 22nd · 7th on team 94.2 +0.076 ★PR ★CR SR CSR
2010-10-09 Portage West MS 1850m 11:32.8 156th · 9th on team 87.9 ★PR ★CR SR CSR
2010-09-17 Forest Akers East Golf Course 2655m 15:17 81st · 7th on team 98.3 ★PR ★CR R SR CSR RSR
2010-09-11 Hedges Boyer Park 2253m 16:04.2 133rd · 3rd on team 75.9 ★PR ★CR R SR CSR RSR

Track & Field

2014 TF 100.2

Temperance Bedford (MI) · Grade 12

Date Meet Event Result Place Rating Difficulty PR/SR Flags
2014-05-06 Saline Quad 800m 3:05.06 14th · 7th on team 97.8 -0.042 ★PR SR RSR
2014-05-06 Saline Quad 1600m 6:38.24 14th · 4th on team 102.6 -0.042 ★PR SR RSR

2013 TF 101.6

Temperance Bedford (MI) · Grade 11

Date Meet Event Result Place Rating Difficulty PR/SR Flags
2013-04-23 Pioneer vs. Bedford 1600m 6:47.57 13th · 9th on team 101.6 -0.028 PR SR RSR